sensor_id;sensor_type;location;lat;lon;timestamp;pressure;altitude;pressure_sealevel;temperature;humidity
1371;BME280;14306;49.942;11.570;2024-03-08T00:01:27;97722.53;;;-1.27;100.00
1371;BME280;14306;49.942;11.570;2024-03-08T00:03:01;97712.81;;;-1.33;100.00
1371;BME280;14306;49.942;11.570;2024-03-08T00:04:36;97725.88;;;-1.32;100.00
1371;BME280;14306;49.942;11.570;2024-03-08T00:06:09;97717.16;;;-1.39;100.00
1371;BME280;14306;49.942;11.570;2024-03-08T00:07:44;97723.06;;;-1.37;100.00
1371;BME280;14306;49.942;11.570;2024-03-08T00:09:17;97713.34;;;-1.43;100.00
1371;BME280;14306;49.942;11.570;2024-03-08T00:10:54;97709.28;;;-1.45;100.00
1371;BME280;14306;49.942;11.570;2024-03-08T00:12:27;97699.88;;;-1.48;100.00
1371;BME280;14306;49.942;11.570;2024-03-08T00:14:02;97711.47;;;-1.42;100.00
1371;BME280;14306;49.942;11.570;2024-03-08T00:15:40;97709.84;;;-1.43;100.00
1371;BME280;14306;49.942;11.570;2024-03-08T00:17:13;97701.38;;;-1.52;100.00
1371;BME280;14306;49.942;11.570;2024-03-08T00:18:48;97700.72;;;-1.47;100.00
1371;BME280;14306;49.942;11.570;2024-03-08T00:20:23;97704.97;;;-1.46;100.00
1371;BME280;14306;49.942;11.570;2024-03-08T00:21:56;97709.00;;;-1.37;100.00
1371;BME280;14306;49.942;11.570;2024-03-08T00:23:30;97704.56;;;-1.43;100.00
1371;BME280;14306;49.942;11.570;2024-03-08T00:25:03;97695.09;;;-1.39;100.00
1371;BME280;14306;49.942;11.570;2024-03-08T00:26:38;97708.91;;;-1.49;100.00
1371;BME280;14306;49.942;11.570;2024-03-08T00:28:11;97698.56;;;-1.57;100.00
1371;BME280;14306;49.942;11.570;2024-03-08T00:29:47;97695.34;;;-1.59;100.00
1371;BME280;14306;49.942;11.570;2024-03-08T00:31:22;97702.03;;;-1.56;100.00
1371;BME280;14306;49.942;11.570;2024-03-08T00:32:56;97695.91;;;-1.57;100.00
1371;BME280;14306;49.942;11.570;2024-03-08T00:34:30;97674.63;;;-1.68;100.00
1371;BME280;14306;49.942;11.570;2024-03-08T00:36:05;97695.16;;;-1.64;100.00
1371;BME280;14306;49.942;11.570;2024-03-08T00:37:40;97698.66;;;-1.63;100.00
1371;BME280;14306;49.942;11.570;2024-03-08T00:39:15;97695.78;;;-1.62;100.00
1371;BME280;14306;49.942;11.570;2024-03-08T00:40:49;97696.56;;;-1.61;100.00
1371;BME280;14306;49.942;11.570;2024-03-08T00:42:22;97691.44;;;-1.56;100.00
1371;BME280;14306;49.942;11.570;2024-03-08T00:43:57;97696.53;;;-1.55;100.00
1371;BME280;14306;49.942;11.570;2024-03-08T00:45:31;97684.72;;;-1.59;100.00
1371;BME280;14306;49.942;11.570;2024-03-08T00:47:06;97694.50;;;-1.59;100.00
1371;BME280;14306;49.942;11.570;2024-03-08T00:48:40;97678.97;;;-1.74;100.00
1371;BME280;14306;49.942;11.570;2024-03-08T00:50:16;97672.91;;;-1.63;100.00
1371;BME280;14306;49.942;11.570;2024-03-08T00:51:51;97683.25;;;-1.55;100.00
1371;BME280;14306;49.942;11.570;2024-03-08T00:53:24;97673.13;;;-1.46;100.00
1371;BME280;14306;49.942;11.570;2024-03-08T00:54:58;97665.09;;;-1.58;100.00
1371;BME280;14306;49.942;11.570;2024-03-08T00:56:32;97649.91;;;-1.69;100.00
1371;BME280;14306;49.942;11.570;2024-03-08T00:58:07;97669.16;;;-1.55;100.00
1371;BME280;14306;49.942;11.570;2024-03-08T00:59:42;97671.50;;;-1.47;100.00
1371;BME280;14306;49.942;11.570;2024-03-08T01:01:15;97663.84;;;-1.55;100.00
1371;BME280;14306;49.942;11.570;2024-03-08T01:02:50;97660.75;;;-1.52;100.00
1371;BME280;14306;49.942;11.570;2024-03-08T01:04:25;97669.72;;;-1.53;100.00
1371;BME280;14306;49.942;11.570;2024-03-08T01:06:01;97657.72;;;-1.56;100.00
1371;BME280;14306;49.942;11.570;2024-03-08T01:07:36;97662.00;;;-1.55;100.00
1371;BME280;14306;49.942;11.570;2024-03-08T01:09:10;97652.63;;;-1.57;100.00
1371;BME280;14306;49.942;11.570;2024-03-08T01:10:43;97650.44;;;-1.60;100.00
1371;BME280;14306;49.942;11.570;2024-03-08T01:12:18;97649.09;;;-1.69;100.00
1371;BME280;14306;49.942;11.570;2024-03-08T01:13:51;97640.34;;;-1.70;100.00
1371;BME280;14306;49.942;11.570;2024-03-08T01:15:27;97644.81;;;-1.70;100.00
1371;BME280;14306;49.942;11.570;2024-03-08T01:17:02;97635.03;;;-1.70;100.00
1371;BME280;14306;49.942;11.570;2024-03-08T01:18:36;97645.41;;;-1.68;100.00
1371;BME280;14306;49.942;11.570;2024-03-08T01:20:10;97627.09;;;-1.76;100.00
1371;BME280;14306;49.942;11.570;2024-03-08T01:21:45;97635.75;;;-1.81;100.00
1371;BME280;14306;49.942;11.570;2024-03-08T01:23:19;97637.16;;;-1.78;100.00
1371;BME280;14306;49.942;11.570;2024-03-08T01:24:52;97632.50;;;-1.83;100.00
1371;BME280;14306;49.942;11.570;2024-03-08T01:26:26;97617.09;;;-1.92;100.00
1371;BME280;14306;49.942;11.570;2024-03-08T01:27:59;97632.28;;;-1.81;100.00
1371;BME280;14306;49.942;11.570;2024-03-08T01:29:34;97629.47;;;-1.86;100.00
1371;BME280;14306;49.942;11.570;2024-03-08T01:31:07;97628.88;;;-1.88;100.00
1371;BME280;14306;49.942;11.570;2024-03-08T01:32:41;97625.25;;;-1.94;100.00
1371;BME280;14306;49.942;11.570;2024-03-08T01:34:16;97623.13;;;-1.85;100.00
1371;BME280;14306;49.942;11.570;2024-03-08T01:35:51;97624.69;;;-1.96;100.00
1371;BME280;14306;49.942;11.570;2024-03-08T01:37:25;97616.28;;;-1.93;100.00
1371;BME280;14306;49.942;11.570;2024-03-08T01:38:58;97609.84;;;-2.03;100.00
1371;BME280;14306;49.942;11.570;2024-03-08T01:40:32;97603.53;;;-2.02;100.00
1371;BME280;14306;49.942;11.570;2024-03-08T01:42:06;97604.34;;;-2.02;100.00
1371;BME280;14306;49.942;11.570;2024-03-08T01:43:39;97601.69;;;-2.02;100.00
1371;BME280;14306;49.942;11.570;2024-03-08T01:45:13;97604.53;;;-2.03;100.00
1371;BME280;14306;49.942;11.570;2024-03-08T01:46:46;97599.19;;;-1.97;100.00
1371;BME280;14306;49.942;11.570;2024-03-08T01:48:21;97606.91;;;-1.95;100.00
1371;BME280;14306;49.942;11.570;2024-03-08T01:49:58;97602.81;;;-1.91;100.00
1371;BME280;14306;49.942;11.570;2024-03-08T01:51:32;97593.06;;;-1.97;100.00
1371;BME280;14306;49.942;11.570;2024-03-08T01:53:06;97582.09;;;-2.01;100.00
1371;BME280;14306;49.942;11.570;2024-03-08T01:54:40;97591.47;;;-1.98;100.00
1371;BME280;14306;49.942;11.570;2024-03-08T01:56:14;97595.63;;;-2.09;100.00
1371;BME280;14306;49.942;11.570;2024-03-08T01:57:47;97590.84;;;-2.00;100.00
1371;BME280;14306;49.942;11.570;2024-03-08T01:59:22;97588.19;;;-2.00;100.00
1371;BME280;14306;49.942;11.570;2024-03-08T02:00:56;97582.44;;;-2.15;100.00
1371;BME280;14306;49.942;11.570;2024-03-08T02:02:32;97583.19;;;-2.08;100.00
1371;BME280;14306;49.942;11.570;2024-03-08T02:04:06;97583.28;;;-1.97;100.00
1371;BME280;14306;49.942;11.570;2024-03-08T02:05:42;97582.03;;;-1.94;100.00
1371;BME280;14306;49.942;11.570;2024-03-08T02:07:16;97578.97;;;-1.98;100.00
1371;BME280;14306;49.942;11.570;2024-03-08T02:08:50;97578.91;;;-2.09;100.00
1371;BME280;14306;49.942;11.570;2024-03-08T02:10:24;97575.22;;;-2.08;100.00
1371;BME280;14306;49.942;11.570;2024-03-08T02:11:57;97572.34;;;-2.07;100.00
1371;BME280;14306;49.942;11.570;2024-03-08T02:13:31;97570.97;;;-2.09;100.00
1371;BME280;14306;49.942;11.570;2024-03-08T02:15:06;97568.81;;;-2.19;100.00
1371;BME280;14306;49.942;11.570;2024-03-08T02:16:39;97578.59;;;-2.19;100.00
1371;BME280;14306;49.942;11.570;2024-03-08T02:18:13;97564.78;;;-2.21;100.00
1371;BME280;14306;49.942;11.570;2024-03-08T02:19:47;97566.81;;;-2.23;100.00
1371;BME280;14306;49.942;11.570;2024-03-08T02:21:22;97563.41;;;-2.30;100.00
1371;BME280;14306;49.942;11.570;2024-03-08T02:22:55;97569.19;;;-2.33;100.00
1371;BME280;14306;49.942;11.570;2024-03-08T02:24:29;97566.97;;;-2.36;100.00
1371;BME280;14306;49.942;11.570;2024-03-08T02:26:03;97558.19;;;-2.37;100.00
1371;BME280;14306;49.942;11.570;2024-03-08T02:27:38;97556.56;;;-2.38;100.00
1371;BME280;14306;49.942;11.570;2024-03-08T02:29:14;97562.16;;;-2.46;100.00
1371;BME280;14306;49.942;11.570;2024-03-08T02:30:48;97557.66;;;-2.45;100.00
1371;BME280;14306;49.942;11.570;2024-03-08T02:32:22;97547.03;;;-2.45;100.00
1371;BME280;14306;49.942;11.570;2024-03-08T02:33:56;97551.69;;;-2.41;100.00
1371;BME280;14306;49.942;11.570;2024-03-08T02:35:32;97545.56;;;-2.41;100.00
1371;BME280;14306;49.942;11.570;2024-03-08T02:37:06;97546.75;;;-2.37;100.00
1371;BME280;14306;49.942;11.570;2024-03-08T02:38:41;97535.03;;;-2.48;100.00
1371;BME280;14306;49.942;11.570;2024-03-08T02:40:14;97549.13;;;-2.47;100.00
1371;BME280;14306;49.942;11.570;2024-03-08T02:41:49;97539.91;;;-2.45;100.00
1371;BME280;14306;49.942;11.570;2024-03-08T02:43:22;97541.09;;;-2.41;100.00
1371;BME280;14306;49.942;11.570;2024-03-08T02:44:58;97539.06;;;-2.39;100.00
1371;BME280;14306;49.942;11.570;2024-03-08T02:46:31;97538.16;;;-2.33;100.00
1371;BME280;14306;49.942;11.570;2024-03-08T02:48:05;97535.28;;;-2.31;100.00
1371;BME280;14306;49.942;11.570;2024-03-08T02:49:39;97532.09;;;-2.40;100.00
1371;BME280;14306;49.942;11.570;2024-03-08T02:51:13;97543.97;;;-2.42;100.00
1371;BME280;14306;49.942;11.570;2024-03-08T02:52:50;97523.25;;;-2.52;100.00
1371;BME280;14306;49.942;11.570;2024-03-08T02:54:23;97521.00;;;-2.48;100.00
1371;BME280;14306;49.942;11.570;2024-03-08T02:55:57;97527.69;;;-2.46;100.00
1371;BME280;14306;49.942;11.570;2024-03-08T02:57:31;97524.88;;;-2.51;100.00
1371;BME280;14306;49.942;11.570;2024-03-08T02:59:05;97530.66;;;-2.60;100.00
1371;BME280;14306;49.942;11.570;2024-03-08T03:00:38;97532.31;;;-2.59;100.00
1371;BME280;14306;49.942;11.570;2024-03-08T03:02:13;97517.66;;;-2.62;100.00
1371;BME280;14306;49.942;11.570;2024-03-08T03:03:47;97530.19;;;-2.51;100.00
1371;BME280;14306;49.942;11.570;2024-03-08T03:05:21;97517.75;;;-2.50;100.00
1371;BME280;14306;49.942;11.570;2024-03-08T03:06:54;97524.16;;;-2.40;100.00
1371;BME280;14306;49.942;11.570;2024-03-08T03:08:30;97521.28;;;-2.38;100.00
1371;BME280;14306;49.942;11.570;2024-03-08T03:10:04;97519.47;;;-2.38;100.00
1371;BME280;14306;49.942;11.570;2024-03-08T03:11:39;97524.22;;;-2.46;100.00
1371;BME280;14306;49.942;11.570;2024-03-08T03:13:13;97511.06;;;-2.53;100.00
1371;BME280;14306;49.942;11.570;2024-03-08T03:14:47;97513.50;;;-2.51;100.00
1371;BME280;14306;49.942;11.570;2024-03-08T03:16:21;97506.41;;;-2.57;100.00
1371;BME280;14306;49.942;11.570;2024-03-08T03:17:55;97507.28;;;-2.63;100.00
1371;BME280;14306;49.942;11.570;2024-03-08T03:19:29;97519.16;;;-2.48;100.00
1371;BME280;14306;49.942;11.570;2024-03-08T03:21:03;97505.44;;;-2.63;100.00
1371;BME280;14306;49.942;11.570;2024-03-08T03:22:41;97512.09;;;-2.54;100.00
1371;BME280;14306;49.942;11.570;2024-03-08T03:24:15;97515.16;;;-2.57;100.00
1371;BME280;14306;49.942;11.570;2024-03-08T03:25:50;97502.66;;;-2.50;100.00
1371;BME280;14306;49.942;11.570;2024-03-08T03:27:24;97482.47;;;-2.69;100.00
1371;BME280;14306;49.942;11.570;2024-03-08T03:28:59;97507.66;;;-2.60;100.00
1371;BME280;14306;49.942;11.570;2024-03-08T03:30:33;97509.31;;;-2.65;100.00
1371;BME280;14306;49.942;11.570;2024-03-08T03:32:07;97506.91;;;-2.67;100.00
1371;BME280;14306;49.942;11.570;2024-03-08T03:33:40;97507.06;;;-2.62;100.00
1371;BME280;14306;49.942;11.570;2024-03-08T03:35:15;97504.63;;;-2.63;100.00
1371;BME280;14306;49.942;11.570;2024-03-08T03:36:48;97515.03;;;-2.62;100.00
1371;BME280;14306;49.942;11.570;2024-03-08T03:38:22;97508.28;;;-2.64;100.00
1371;BME280;14306;49.942;11.570;2024-03-08T03:39:57;97505.81;;;-2.41;100.00
1371;BME280;14306;49.942;11.570;2024-03-08T03:41:32;97518.72;;;-2.45;100.00
1371;BME280;14306;49.942;11.570;2024-03-08T03:43:05;97507.75;;;-2.48;100.00
1371;BME280;14306;49.942;11.570;2024-03-08T03:44:39;97500.81;;;-2.49;100.00
1371;BME280;14306;49.942;11.570;2024-03-08T03:46:12;97507.91;;;-2.43;100.00
1371;BME280;14306;49.942;11.570;2024-03-08T03:47:47;97509.22;;;-2.52;100.00
1371;BME280;14306;49.942;11.570;2024-03-08T03:49:20;97505.00;;;-2.60;100.00
1371;BME280;14306;49.942;11.570;2024-03-08T03:50:54;97507.75;;;-2.48;100.00
1371;BME280;14306;49.942;11.570;2024-03-08T03:52:28;97504.34;;;-2.55;100.00
1371;BME280;14306;49.942;11.570;2024-03-08T03:54:01;97513.56;;;-2.40;100.00
1371;BME280;14306;49.942;11.570;2024-03-08T03:55:38;97509.78;;;-2.50;100.00
1371;BME280;14306;49.942;11.570;2024-03-08T03:57:13;97508.53;;;-2.48;100.00
1371;BME280;14306;49.942;11.570;2024-03-08T03:58:46;97505.31;;;-2.50;100.00
1371;BME280;14306;49.942;11.570;2024-03-08T04:00:22;97505.16;;;-2.55;100.00
1371;BME280;14306;49.942;11.570;2024-03-08T04:01:55;97498.63;;;-2.52;100.00
1371;BME280;14306;49.942;11.570;2024-03-08T04:03:29;97508.19;;;-2.51;100.00
1371;BME280;14306;49.942;11.570;2024-03-08T04:05:02;97513.63;;;-2.46;100.00
1371;BME280;14306;49.942;11.570;2024-03-08T04:06:36;97507.16;;;-2.50;100.00
1371;BME280;14306;49.942;11.570;2024-03-08T04:08:11;97499.56;;;-2.47;100.00
1371;BME280;14306;49.942;11.570;2024-03-08T04:09:44;97501.34;;;-2.41;100.00
1371;BME280;14306;49.942;11.570;2024-03-08T04:11:19;97504.28;;;-2.49;100.00
1371;BME280;14306;49.942;11.570;2024-03-08T04:12:54;97505.53;;;-2.51;100.00
1371;BME280;14306;49.942;11.570;2024-03-08T04:14:29;97503.75;;;-2.57;100.00
1371;BME280;14306;49.942;11.570;2024-03-08T04:16:02;97493.88;;;-1.96;100.00
1371;BME280;14306;49.942;11.570;2024-03-08T04:17:40;97496.50;;;-2.08;100.00
1371;BME280;14306;49.942;11.570;2024-03-08T04:19:14;97498.41;;;-2.15;100.00
1371;BME280;14306;49.942;11.570;2024-03-08T04:20:48;97493.03;;;-2.08;100.00
1371;BME280;14306;49.942;11.570;2024-03-08T04:22:21;97482.56;;;-2.21;100.00
1371;BME280;14306;49.942;11.570;2024-03-08T04:23:55;97506.13;;;-2.13;100.00
1371;BME280;14306;49.942;11.570;2024-03-08T04:25:29;97506.94;;;-2.13;100.00
1371;BME280;14306;49.942;11.570;2024-03-08T04:27:05;97499.50;;;-2.22;100.00
1371;BME280;14306;49.942;11.570;2024-03-08T04:28:38;97495.16;;;-2.17;100.00
1371;BME280;14306;49.942;11.570;2024-03-08T04:30:12;97491.72;;;-2.17;100.00
1371;BME280;14306;49.942;11.570;2024-03-08T04:31:46;97494.34;;;-2.17;100.00
1371;BME280;14306;49.942;11.570;2024-03-08T04:33:20;97483.75;;;-2.17;100.00
1371;BME280;14306;49.942;11.570;2024-03-08T04:34:54;97493.09;;;-2.15;100.00
1371;BME280;14306;49.942;11.570;2024-03-08T04:36:28;97493.97;;;-2.21;100.00
1371;BME280;14306;49.942;11.570;2024-03-08T04:38:01;97483.31;;;-2.32;100.00
1371;BME280;14306;49.942;11.570;2024-03-08T04:39:37;97496.72;;;-2.27;100.00
1371;BME280;14306;49.942;11.570;2024-03-08T04:41:11;97484.41;;;-2.22;100.00
1371;BME280;14306;49.942;11.570;2024-03-08T04:42:46;97483.38;;;-2.21;100.00
1371;BME280;14306;49.942;11.570;2024-03-08T04:44:22;97490.06;;;-2.18;100.00
1371;BME280;14306;49.942;11.570;2024-03-08T04:45:57;97494.44;;;-2.24;100.00
1371;BME280;14306;49.942;11.570;2024-03-08T04:47:30;97491.19;;;-2.08;100.00
1371;BME280;14306;49.942;11.570;2024-03-08T04:49:05;97490.44;;;-1.97;100.00
1371;BME280;14306;49.942;11.570;2024-03-08T04:50:40;97496.53;;;-1.96;100.00
1371;BME280;14306;49.942;11.570;2024-03-08T04:52:14;97490.78;;;-1.93;100.00
1371;BME280;14306;49.942;11.570;2024-03-08T04:53:47;97491.22;;;-1.78;100.00
1371;BME280;14306;49.942;11.570;2024-03-08T04:55:21;97493.25;;;-1.62;100.00
1371;BME280;14306;49.942;11.570;2024-03-08T04:56:54;97484.16;;;-1.55;100.00
1371;BME280;14306;49.942;11.570;2024-03-08T04:58:30;97488.06;;;-1.28;100.00
1371;BME280;14306;49.942;11.570;2024-03-08T05:00:03;97485.81;;;-0.90;100.00
1371;BME280;14306;49.942;11.570;2024-03-08T05:01:43;97476.91;;;-0.84;100.00
1371;BME280;14306;49.942;11.570;2024-03-08T05:03:17;97483.84;;;-0.71;100.00
1371;BME280;14306;49.942;11.570;2024-03-08T05:04:51;97480.38;;;-0.72;100.00
1371;BME280;14306;49.942;11.570;2024-03-08T05:06:24;97485.47;;;-0.47;100.00
1371;BME280;14306;49.942;11.570;2024-03-08T05:07:57;97486.84;;;-0.56;100.00
1371;BME280;14306;49.942;11.570;2024-03-08T05:09:31;97476.44;;;-0.46;100.00
1371;BME280;14306;49.942;11.570;2024-03-08T05:11:06;97488.72;;;-0.45;100.00
1371;BME280;14306;49.942;11.570;2024-03-08T05:12:40;97483.84;;;-0.48;100.00
1371;BME280;14306;49.942;11.570;2024-03-08T05:14:15;97480.59;;;-0.39;100.00
1371;BME280;14306;49.942;11.570;2024-03-08T05:15:50;97480.84;;;-0.29;100.00
1371;BME280;14306;49.942;11.570;2024-03-08T05:17:23;97485.56;;;-0.31;100.00
1371;BME280;14306;49.942;11.570;2024-03-08T05:18:56;97481.28;;;-0.32;100.00
1371;BME280;14306;49.942;11.570;2024-03-08T05:20:32;97476.34;;;-0.40;100.00
1371;BME280;14306;49.942;11.570;2024-03-08T05:22:05;97477.81;;;-0.32;100.00
1371;BME280;14306;49.942;11.570;2024-03-08T05:23:39;97483.13;;;-0.32;100.00
1371;BME280;14306;49.942;11.570;2024-03-08T05:25:12;97479.06;;;-0.23;100.00
1371;BME280;14306;49.942;11.570;2024-03-08T05:26:46;97478.91;;;0.07;100.00
1371;BME280;14306;49.942;11.570;2024-03-08T05:28:20;97478.75;;;0.13;100.00
1371;BME280;14306;49.942;11.570;2024-03-08T05:29:56;97471.53;;;0.25;100.00
1371;BME280;14306;49.942;11.570;2024-03-08T05:31:31;97480.19;;;0.32;100.00
1371;BME280;14306;49.942;11.570;2024-03-08T05:33:10;97475.19;;;0.36;100.00
1371;BME280;14306;49.942;11.570;2024-03-08T05:34:43;97466.75;;;0.39;100.00
1371;BME280;14306;49.942;11.570;2024-03-08T05:36:17;97469.53;;;0.60;100.00
1371;BME280;14306;49.942;11.570;2024-03-08T05:37:50;97461.38;;;0.67;100.00
1371;BME280;14306;49.942;11.570;2024-03-08T05:39:24;97461.81;;;0.75;100.00
1371;BME280;14306;49.942;11.570;2024-03-08T05:40:58;97469.59;;;0.93;100.00
1371;BME280;14306;49.942;11.570;2024-03-08T05:42:32;97460.94;;;1.03;100.00
1371;BME280;14306;49.942;11.570;2024-03-08T05:44:05;97468.38;;;1.01;100.00
1371;BME280;14306;49.942;11.570;2024-03-08T05:45:40;97444.38;;;1.01;100.00
1371;BME280;14306;49.942;11.570;2024-03-08T05:47:14;97458.94;;;1.10;100.00
1371;BME280;14306;49.942;11.570;2024-03-08T05:48:48;97457.72;;;1.17;100.00
1371;BME280;14306;49.942;11.570;2024-03-08T05:50:22;97468.53;;;1.27;100.00
1371;BME280;14306;49.942;11.570;2024-03-08T05:51:56;97468.13;;;1.19;100.00
1371;BME280;14306;49.942;11.570;2024-03-08T05:53:29;97470.38;;;1.27;100.00
1371;BME280;14306;49.942;11.570;2024-03-08T05:55:04;97477.44;;;1.33;100.00
1371;BME280;14306;49.942;11.570;2024-03-08T05:56:40;97478.56;;;1.37;100.00
1371;BME280;14306;49.942;11.570;2024-03-08T05:58:16;97477.16;;;1.51;100.00
1371;BME280;14306;49.942;11.570;2024-03-08T05:59:50;97480.69;;;1.56;100.00
1371;BME280;14306;49.942;11.570;2024-03-08T06:01:26;97468.19;;;1.57;100.00
1371;BME280;14306;49.942;11.570;2024-03-08T06:03:00;97482.16;;;1.64;100.00
1371;BME280;14306;49.942;11.570;2024-03-08T06:04:33;97483.22;;;1.63;100.00
1371;BME280;14306;49.942;11.570;2024-03-08T06:06:07;97485.38;;;1.66;100.00
1371;BME280;14306;49.942;11.570;2024-03-08T06:07:40;97482.16;;;1.64;100.00
1371;BME280;14306;49.942;11.570;2024-03-08T06:09:14;97475.41;;;1.78;100.00
1371;BME280;14306;49.942;11.570;2024-03-08T06:10:56;97485.59;;;1.81;100.00
1371;BME280;14306;49.942;11.570;2024-03-08T06:12:32;97483.69;;;1.76;100.00
1371;BME280;14306;49.942;11.570;2024-03-08T06:14:09;97477.22;;;1.72;100.00
1371;BME280;14306;49.942;11.570;2024-03-08T06:15:43;97491.81;;;1.86;100.00
1371;BME280;14306;49.942;11.570;2024-03-08T06:17:19;97480.63;;;1.89;100.00
1371;BME280;14306;49.942;11.570;2024-03-08T06:18:53;97487.97;;;1.99;100.00
1371;BME280;14306;49.942;11.570;2024-03-08T06:20:28;97482.34;;;1.95;100.00
1371;BME280;14306;49.942;11.570;2024-03-08T06:22:01;97491.72;;;1.98;100.00
1371;BME280;14306;49.942;11.570;2024-03-08T06:23:38;97498.47;;;2.05;100.00
1371;BME280;14306;49.942;11.570;2024-03-08T06:25:13;97487.59;;;2.12;100.00
1371;BME280;14306;49.942;11.570;2024-03-08T06:26:47;97494.47;;;2.08;100.00
1371;BME280;14306;49.942;11.570;2024-03-08T06:28:21;97493.75;;;2.12;100.00
1371;BME280;14306;49.942;11.570;2024-03-08T06:29:55;97494.63;;;2.18;100.00
1371;BME280;14306;49.942;11.570;2024-03-08T06:31:29;97501.31;;;2.20;100.00
1371;BME280;14306;49.942;11.570;2024-03-08T06:33:04;97488.22;;;2.19;100.00
1371;BME280;14306;49.942;11.570;2024-03-08T06:34:39;97495.78;;;2.27;100.00
1371;BME280;14306;49.942;11.570;2024-03-08T06:36:12;97498.13;;;2.18;100.00
1371;BME280;14306;49.942;11.570;2024-03-08T06:37:47;97496.44;;;2.12;100.00
1371;BME280;14306;49.942;11.570;2024-03-08T06:39:21;97478.41;;;2.03;100.00
1371;BME280;14306;49.942;11.570;2024-03-08T06:40:58;97490.69;;;2.25;100.00
1371;BME280;14306;49.942;11.570;2024-03-08T06:42:31;97488.91;;;2.31;100.00
1371;BME280;14306;49.942;11.570;2024-03-08T06:44:08;97488.91;;;2.31;100.00
1371;BME280;14306;49.942;11.570;2024-03-08T06:45:41;97488.78;;;2.42;100.00
1371;BME280;14306;49.942;11.570;2024-03-08T06:47:21;97478.97;;;2.48;100.00
1371;BME280;14306;49.942;11.570;2024-03-08T06:48:57;97477.06;;;2.48;100.00
1371;BME280;14306;49.942;11.570;2024-03-08T06:50:31;97472.66;;;2.59;100.00
1371;BME280;14306;49.942;11.570;2024-03-08T06:52:05;97485.16;;;2.80;100.00
1371;BME280;14306;49.942;11.570;2024-03-08T06:53:41;97489.50;;;2.86;100.00
1371;BME280;14306;49.942;11.570;2024-03-08T06:55:15;97479.84;;;3.11;100.00
1371;BME280;14306;49.942;11.570;2024-03-08T06:56:50;97482.53;;;3.11;100.00
1371;BME280;14306;49.942;11.570;2024-03-08T06:58:23;97496.53;;;3.23;100.00
1371;BME280;14306;49.942;11.570;2024-03-08T06:59:57;97496.78;;;3.58;100.00
1371;BME280;14306;49.942;11.570;2024-03-08T07:01:30;97508.63;;;4.04;100.00
1371;BME280;14306;49.942;11.570;2024-03-08T07:03:08;97502.41;;;4.60;100.00
1371;BME280;14306;49.942;11.570;2024-03-08T07:04:46;97519.97;;;5.08;100.00
1371;BME280;14306;49.942;11.570;2024-03-08T07:06:19;97518.13;;;5.73;100.00
1371;BME280;14306;49.942;11.570;2024-03-08T07:07:54;97525.31;;;6.28;100.00
1371;BME280;14306;49.942;11.570;2024-03-08T07:09:27;97526.81;;;6.54;100.00
1371;BME280;14306;49.942;11.570;2024-03-08T07:11:02;97531.53;;;7.69;100.00
1371;BME280;14306;49.942;11.570;2024-03-08T07:12:36;97534.06;;;8.41;100.00
1371;BME280;14306;49.942;11.570;2024-03-08T07:14:09;97525.13;;;8.17;100.00
1371;BME280;14306;49.942;11.570;2024-03-08T07:15:44;97533.78;;;8.66;100.00
1371;BME280;14306;49.942;11.570;2024-03-08T07:17:18;97538.19;;;8.34;100.00
1371;BME280;14306;49.942;11.570;2024-03-08T07:18:52;97541.53;;;8.73;100.00
1371;BME280;14306;49.942;11.570;2024-03-08T07:20:27;97546.94;;;9.84;100.00
1371;BME280;14306;49.942;11.570;2024-03-08T07:22:01;97550.22;;;9.49;100.00
1371;BME280;14306;49.942;11.570;2024-03-08T07:23:36;97536.34;;;9.87;100.00
1371;BME280;14306;49.942;11.570;2024-03-08T07:25:27;97545.63;;;10.86;100.00
1371;BME280;14306;49.942;11.570;2024-03-08T07:27:03;97533.84;;;9.91;100.00
1371;BME280;14306;49.942;11.570;2024-03-08T07:28:38;97553.22;;;10.43;100.00
1371;BME280;14306;49.942;11.570;2024-03-08T07:30:12;97554.16;;;11.55;98.68
1371;BME280;14306;49.942;11.570;2024-03-08T07:31:46;97559.78;;;11.45;92.15
1371;BME280;14306;49.942;11.570;2024-03-08T07:33:29;97537.03;;;9.93;90.59
1371;BME280;14306;49.942;11.570;2024-03-08T07:35:04;97555.13;;;11.24;89.96
1371;BME280;14306;49.942;11.570;2024-03-08T07:36:40;97545.53;;;10.64;82.36
1371;BME280;14306;49.942;11.570;2024-03-08T07:38:13;97548.03;;;10.87;81.00
1371;BME280;14306;49.942;11.570;2024-03-08T07:39:47;97552.75;;;10.68;82.28
1371;BME280;14306;49.942;11.570;2024-03-08T07:41:21;97549.66;;;10.61;79.34
1371;BME280;14306;49.942;11.570;2024-03-08T07:42:56;97542.50;;;10.38;80.40
1371;BME280;14306;49.942;11.570;2024-03-08T07:44:29;97570.16;;;11.79;77.73
1371;BME280;14306;49.942;11.570;2024-03-08T07:46:05;97561.34;;;12.18;69.56
1371;BME280;14306;49.942;11.570;2024-03-08T07:47:38;97547.66;;;11.43;73.18
1371;BME280;14306;49.942;11.570;2024-03-08T07:49:12;97542.00;;;10.63;72.57
1371;BME280;14306;49.942;11.570;2024-03-08T07:50:46;97538.38;;;11.08;74.42
1371;BME280;14306;49.942;11.570;2024-03-08T07:52:25;97565.66;;;12.19;70.08
1371;BME280;14306;49.942;11.570;2024-03-08T07:53:58;97571.41;;;12.78;69.85
1371;BME280;14306;49.942;11.570;2024-03-08T07:55:33;97557.59;;;12.36;65.56
1371;BME280;14306;49.942;11.570;2024-03-08T07:57:07;97571.13;;;12.88;63.37
1371;BME280;14306;49.942;11.570;2024-03-08T07:58:41;97553.84;;;12.84;60.47
1371;BME280;14306;49.942;11.570;2024-03-08T08:00:16;97536.97;;;11.11;65.01
1371;BME280;14306;49.942;11.570;2024-03-08T08:01:53;97547.59;;;11.70;68.76
1371;BME280;14306;49.942;11.570;2024-03-08T08:03:26;97527.97;;;10.48;68.29
1371;BME280;14306;49.942;11.570;2024-03-08T08:05:01;97537.81;;;10.57;70.60
1371;BME280;14306;49.942;11.570;2024-03-08T08:06:34;97524.72;;;10.19;75.35
1371;BME280;14306;49.942;11.570;2024-03-08T08:08:12;97535.50;;;10.91;71.99
1371;BME280;14306;49.942;11.570;2024-03-08T08:09:45;97550.78;;;11.36;70.52
1371;BME280;14306;49.942;11.570;2024-03-08T08:11:19;97524.38;;;10.39;70.44
1371;BME280;14306;49.942;11.570;2024-03-08T08:12:53;97541.50;;;11.02;71.27
1371;BME280;14306;49.942;11.570;2024-03-08T08:14:27;97537.47;;;11.13;67.69
1371;BME280;14306;49.942;11.570;2024-03-08T08:16:00;97515.25;;;10.62;69.67